createdAt,value
2022-08-10T00:00:16.625Z,14.84
2022-08-10T00:03:37.835Z,14.75
2022-08-10T00:06:40.261Z,14.72
2022-08-10T00:09:50.626Z,14.66
2022-08-10T00:12:55.353Z,14.65
2022-08-10T00:15:57.725Z,14.66
2022-08-10T00:19:00.487Z,14.59
2022-08-10T00:22:02.595Z,14.51
2022-08-10T00:25:05.911Z,14.53
2022-08-10T00:28:08.531Z,14.46
2022-08-10T00:31:10.906Z,14.46
2022-08-10T00:34:13.171Z,14.39
2022-08-10T00:37:17.383Z,14.37
2022-08-10T00:40:19.624Z,14.32
2022-08-10T00:43:40.549Z,14.25
2022-08-10T00:46:42.653Z,14.29
2022-08-10T00:49:45.120Z,14.24
2022-08-10T00:52:47.610Z,14.15
2022-08-10T00:57:14.520Z,14.14
2022-08-10T00:59:11.982Z,14.11
2022-08-10T01:02:14.402Z,14.13
2022-08-10T01:05:16.643Z,14.09
2022-08-10T01:08:30.543Z,14.14
2022-08-10T01:12:34.236Z,14.14
2022-08-10T01:15:08.718Z,14.09
2022-08-10T01:18:29.629Z,14.11
2022-08-10T01:22:09.354Z,14.11
2022-08-10T01:25:11.680Z,13.99
2022-08-10T01:28:51.700Z,14.00
2022-08-10T01:31:57.053Z,13.98
2022-08-10T01:35:11.001Z,13.94
2022-08-10T01:38:40.803Z,13.88
2022-08-10T01:41:46.595Z,13.92
2022-08-10T01:44:56.011Z,13.86
2022-08-10T01:48:18.902Z,13.80
2022-08-10T01:51:32.740Z,13.73
2022-08-10T01:54:35.532Z,13.74
2022-08-10T01:57:39.374Z,13.72
2022-08-10T02:00:43.361Z,13.69
2022-08-10T02:04:03.684Z,13.68
2022-08-10T02:07:11.328Z,13.57
2022-08-10T02:10:15.519Z,13.58
2022-08-10T02:13:19.085Z,13.57
2022-08-10T02:16:21.745Z,13.61
2022-08-10T02:19:25.229Z,13.60
2022-08-10T02:22:45.897Z,13.50
2022-08-10T02:25:49.735Z,13.49
2022-08-10T02:28:52.865Z,13.48
2022-08-10T02:31:56.407Z,13.51
2022-08-10T02:35:00.718Z,13.51
2022-08-10T02:38:06.605Z,13.50
2022-08-10T02:45:02.830Z,13.42
2022-08-10T02:45:21.566Z,13.39
2022-08-10T02:48:24.348Z,13.29
2022-08-10T02:52:07.022Z,13.34
2022-08-10T02:55:27.272Z,13.33
2022-08-10T02:58:42.489Z,13.33
2022-08-10T03:01:49.444Z,13.32
2022-08-10T03:04:58.378Z,13.35
2022-08-10T03:08:03.488Z,13.34
2022-08-10T03:11:06.750Z,13.28
2022-08-10T03:14:10.187Z,13.27
2022-08-10T03:17:12.879Z,13.29
2022-08-10T03:20:37.309Z,13.30
2022-08-10T03:23:38.423Z,13.26
2022-08-10T03:26:40.937Z,13.19
2022-08-10T03:30:31.929Z,13.22
2022-08-10T03:33:07.808Z,13.20
2022-08-10T03:36:40.744Z,13.18
2022-08-10T03:39:32.913Z,13.24
2022-08-10T03:42:37.525Z,13.21
2022-08-10T03:45:55.470Z,13.20
2022-08-10T03:49:02.184Z,13.24
2022-08-10T03:52:06.648Z,13.19
2022-08-10T03:55:09.753Z,13.23
2022-08-10T03:58:12.502Z,13.30
2022-08-10T04:01:15.923Z,13.28
2022-08-10T04:04:23.762Z,13.33
2022-08-10T04:07:26.961Z,13.31
2022-08-10T04:10:29.693Z,13.37
2022-08-10T04:13:32.105Z,13.37
2022-08-10T04:16:34.297Z,13.34
2022-08-10T04:19:46.829Z,13.38
2022-08-10T04:22:51.945Z,13.46
2022-08-10T04:25:54.441Z,13.47
2022-08-10T04:28:56.611Z,13.61
2022-08-10T04:31:59.885Z,13.67
2022-08-10T04:35:04.280Z,13.72
2022-08-10T04:38:07.429Z,13.76
2022-08-10T04:41:10.277Z,13.76
2022-08-10T04:44:12.764Z,13.88
2022-08-10T04:47:16.893Z,13.91
2022-08-10T04:50:37.484Z,13.97
2022-08-10T04:54:04.596Z,14.04
2022-08-10T04:57:03.341Z,14.12
2022-08-10T05:00:08.752Z,14.22
2022-08-10T05:03:21.716Z,14.30
2022-08-10T05:06:25.236Z,14.39
2022-08-10T05:09:27.537Z,14.48
2022-08-10T05:12:29.809Z,14.62
2022-08-10T05:15:32.184Z,14.68
2022-08-10T05:18:34.721Z,14.86
2022-08-10T05:21:56.406Z,15.04
2022-08-10T05:24:59.944Z,15.19
2022-08-10T05:28:06.510Z,15.33
2022-08-10T05:31:09.057Z,15.48
2022-08-10T05:34:20.549Z,15.70
2022-08-10T05:38:08.963Z,15.89
2022-08-10T05:40:48.542Z,15.97
2022-08-10T05:43:51.921Z,16.12
2022-08-10T05:46:54.252Z,16.34
2022-08-10T05:49:56.730Z,16.42
2022-08-10T05:53:02.591Z,16.63
2022-08-10T05:56:21.511Z,16.91
2022-08-10T06:00:29.387Z,17.33
2022-08-10T06:02:54.900Z,17.76
2022-08-10T06:05:58.778Z,18.16
2022-08-10T06:09:01.457Z,18.52
2022-08-10T06:12:27.859Z,18.90
2022-08-10T06:15:50.274Z,19.29
2022-08-10T06:18:51.367Z,19.90
2022-08-10T06:22:01.344Z,20.33
2022-08-10T06:28:28.956Z,21.26
2022-08-10T06:31:48.548Z,21.58
2022-08-10T06:34:55.036Z,22.16
2022-08-10T06:37:59.781Z,22.63
2022-08-10T06:41:08.392Z,23.06
2022-08-10T06:44:16.572Z,23.34
2022-08-10T06:47:22.917Z,23.14
2022-08-10T06:50:55.899Z,23.43
2022-08-10T06:54:07.933Z,23.64
2022-08-10T06:57:18.854Z,24.04
2022-08-10T07:00:21.218Z,23.94
2022-08-10T07:03:34.419Z,24.35
2022-08-10T07:06:37.524Z,24.59
2022-08-10T07:09:40.324Z,25.02
2022-08-10T07:12:43.603Z,25.17
2022-08-10T07:15:59.797Z,25.25
2022-08-10T07:19:03.569Z,25.24
2022-08-10T07:22:06.718Z,25.15
2022-08-10T07:25:10.275Z,25.27
2022-08-10T07:28:13.892Z,25.54
2022-08-10T07:31:55.040Z,25.53
2022-08-10T07:34:41.695Z,25.69
2022-08-10T07:37:49.506Z,25.56
2022-08-10T07:40:53.644Z,25.92
2022-08-10T07:43:57.285Z,25.74
2022-08-10T07:47:03.008Z,25.38
2022-08-10T07:50:08.350Z,25.41
2022-08-10T07:53:13.877Z,25.64
2022-08-10T07:56:45.479Z,25.78
2022-08-10T07:59:45.077Z,25.38
2022-08-10T08:02:56.044Z,25.65
2022-08-10T08:06:03.282Z,25.81
2022-08-10T08:09:11.772Z,25.68
2022-08-10T08:12:15.864Z,25.53
2022-08-10T08:16:20.344Z,25.41
2022-08-10T08:19:03.916Z,25.91
2022-08-10T08:24:04.410Z,26.62
2022-08-10T08:25:30.749Z,26.86
2022-08-10T08:28:34.548Z,26.59
2022-08-10T08:32:01.168Z,26.58
2022-08-10T08:35:06.688Z,26.37
2022-08-10T08:38:34.012Z,26.25
2022-08-10T08:41:50.565Z,26.25
2022-08-10T08:45:15.408Z,26.03
2022-08-10T08:48:20.774Z,25.98
2022-08-10T08:52:09.893Z,26.35
2022-08-10T08:56:03.921Z,26.93
2022-08-10T08:59:00.881Z,27.28
2022-08-10T09:02:21.512Z,26.62
2022-08-10T09:05:58.454Z,26.28
2022-08-10T09:09:15.642Z,26.12
2022-08-10T09:12:49.063Z,26.81
2022-08-10T09:16:13.993Z,26.84
2022-08-10T09:19:38.619Z,26.15
2022-08-10T09:22:47.435Z,26.50
2022-08-10T09:25:56.080Z,26.45
2022-08-10T09:29:12.354Z,26.22
2022-08-10T09:36:13.860Z,26.27
2022-08-10T09:36:21.608Z,26.58
2022-08-10T09:40:56.067Z,26.96
2022-08-10T09:43:32.156Z,27.13
2022-08-10T09:46:59.408Z,26.65
2022-08-10T09:50:10.056Z,26.24
2022-08-10T09:53:40.519Z,25.90
2022-08-10T09:57:41.226Z,25.89
2022-08-10T10:00:46.970Z,25.69
2022-08-10T10:04:34.316Z,26.15
2022-08-10T10:07:40.450Z,26.84
2022-08-10T10:11:08.917Z,27.20
2022-08-10T10:14:17.078Z,27.62
2022-08-10T10:17:27.103Z,27.89
2022-08-10T10:20:44.826Z,28.36
2022-08-10T10:24:21.619Z,28.37
2022-08-10T10:27:48.210Z,28.11
2022-08-10T10:31:32.733Z,28.04
2022-08-10T10:34:46.495Z,27.98
2022-08-10T10:38:01.151Z,28.03
2022-08-10T10:42:03.327Z,28.61
2022-08-10T10:45:18.643Z,29.02
2022-08-10T10:48:33.063Z,28.43
2022-08-10T10:51:45.491Z,28.05
2022-08-10T10:54:55.851Z,28.18
2022-08-10T10:58:20.321Z,28.78
2022-08-10T11:01:44.729Z,28.96
2022-08-10T11:05:29.197Z,29.53
2022-08-10T11:08:38.635Z,29.94
2022-08-10T11:12:00.669Z,29.77
2022-08-10T11:15:28.872Z,29.12
2022-08-10T11:19:08.739Z,28.37
2022-08-10T11:22:30.758Z,28.10
2022-08-10T11:25:43.007Z,28.26
2022-08-10T11:28:51.985Z,28.63
2022-08-10T11:32:28.819Z,29.01
2022-08-10T11:35:48.775Z,29.32
2022-08-10T11:39:13.433Z,29.80
2022-08-10T11:42:42.795Z,30.17
2022-08-10T11:46:07.677Z,29.61
2022-08-10T11:49:22.115Z,28.83
2022-08-10T11:52:52.441Z,28.47
2022-08-10T11:55:57.376Z,28.35
2022-08-10T11:59:18.332Z,28.32
2022-08-10T12:02:37.456Z,28.39
2022-08-10T12:05:51.955Z,28.20
2022-08-10T12:10:11.122Z,28.12
2022-08-10T12:12:21.028Z,28.19
2022-08-10T12:15:29.830Z,28.18
2022-08-10T12:18:50.714Z,28.01
2022-08-10T12:22:05.661Z,27.79
2022-08-10T12:25:54.919Z,28.06
2022-08-10T12:29:03.732Z,28.33
2022-08-10T12:32:25.486Z,28.75
2022-08-10T12:35:33.242Z,29.09
2022-08-10T12:38:40.156Z,29.41
2022-08-10T12:41:50.533Z,29.50
2022-08-10T12:45:03.148Z,29.54
2022-08-10T12:48:15.095Z,29.84
2022-08-10T12:51:38.849Z,30.01
2022-08-10T12:54:50.782Z,30.05
2022-08-10T12:57:56.005Z,29.57
2022-08-10T13:01:17.773Z,29.77
2022-08-10T13:04:28.068Z,29.80
2022-08-10T13:08:24.933Z,30.05
2022-08-10T13:11:02.224Z,29.93
2022-08-10T13:14:11.078Z,29.87
2022-08-10T13:17:19.788Z,29.39
2022-08-10T13:20:30.419Z,29.67
2022-08-10T13:23:38.442Z,29.92
2022-08-10T13:27:26.057Z,29.89
2022-08-10T13:30:13.503Z,29.65
2022-08-10T13:34:35.827Z,29.43
2022-08-10T13:36:42.193Z,29.29
2022-08-10T13:39:58.829Z,28.96
2022-08-10T13:43:06.997Z,28.55
2022-08-10T13:46:22.661Z,28.41
2022-08-10T13:49:29.622Z,28.26
2022-08-10T13:52:33.462Z,28.64
2022-08-10T13:55:54.538Z,28.78
2022-08-10T13:58:59.320Z,28.49
2022-08-10T14:02:03.385Z,28.14
2022-08-10T14:05:07.428Z,27.87
2022-08-10T14:08:15.177Z,27.87
2022-08-10T14:11:19.109Z,27.79
2022-08-10T14:14:22.294Z,27.85
2022-08-10T14:17:25.980Z,28.03
2022-08-10T14:20:29.306Z,28.01
2022-08-10T14:23:32.364Z,28.03
2022-08-10T14:26:34.628Z,27.89
2022-08-10T14:29:43.494Z,27.61
2022-08-10T14:32:48.510Z,27.64
2022-08-10T14:36:19.217Z,27.42
2022-08-10T14:39:25.997Z,27.03
2022-08-10T14:42:32.459Z,27.04
2022-08-10T14:45:36.628Z,27.36
2022-08-10T14:48:45.348Z,27.57
2022-08-10T14:51:50.110Z,27.80
2022-08-10T14:54:55.182Z,27.85
2022-08-10T14:58:19.336Z,27.87
2022-08-10T15:01:21.996Z,27.99
2022-08-10T15:04:26.810Z,27.86
2022-08-10T15:07:33.396Z,27.68
2022-08-10T15:10:36.346Z,27.54
2022-08-10T15:13:44.680Z,27.50
2022-08-10T15:17:08.452Z,27.69
2022-08-10T15:20:20.686Z,27.90
2022-08-10T15:23:30.724Z,27.84
2022-08-10T15:26:35.847Z,28.03
2022-08-10T15:29:57.711Z,28.07
2022-08-10T15:34:02.579Z,28.10
2022-08-10T15:37:39.966Z,28.16
2022-08-10T15:40:35.830Z,28.19
2022-08-10T15:43:44.514Z,28.19
2022-08-10T15:46:53.166Z,28.22
2022-08-10T15:50:07.766Z,28.01
2022-08-10T15:53:16.462Z,28.09
2022-08-10T15:56:28.347Z,28.12
2022-08-10T16:00:08.979Z,28.01
2022-08-10T16:03:17.363Z,27.79
2022-08-10T16:06:28.481Z,27.49
2022-08-10T16:10:23.093Z,27.26
2022-08-10T16:13:59.787Z,27.02
2022-08-10T16:16:36.306Z,27.13
2022-08-10T16:19:50.136Z,27.25
2022-08-10T16:22:56.203Z,27.27
2022-08-10T16:26:05.108Z,27.43
2022-08-10T16:29:20.538Z,27.37
2022-08-10T16:32:23.580Z,27.29
2022-08-10T16:35:25.762Z,27.36
2022-08-10T16:38:28.625Z,27.49
2022-08-10T16:42:02.882Z,27.50
2022-08-10T16:45:02.821Z,27.58
2022-08-10T16:48:06.726Z,27.57
2022-08-10T16:51:14.111Z,27.51
2022-08-10T16:54:26.286Z,27.47
2022-08-10T16:57:30.062Z,27.47
2022-08-10T17:00:32.833Z,27.38
2022-08-10T17:04:06.172Z,27.26
2022-08-10T17:07:08.191Z,27.09
2022-08-10T17:10:15.183Z,26.97
2022-08-10T17:13:21.184Z,26.87
2022-08-10T17:16:24.550Z,26.73
2022-08-10T17:19:27.819Z,26.58
2022-08-10T17:22:35.574Z,26.24
2022-08-10T17:25:48.586Z,25.96
2022-08-10T17:28:56.194Z,25.69
2022-08-10T17:32:01.091Z,25.52
2022-08-10T17:35:09.278Z,25.28
2022-08-10T17:38:24.271Z,25.21
2022-08-10T17:41:32.726Z,25.06
2022-08-10T17:44:36.842Z,24.94
2022-08-10T17:47:57.933Z,24.76
2022-08-10T17:51:00.750Z,24.65
2022-08-10T17:54:09.149Z,24.55
2022-08-10T17:57:18.588Z,24.42
2022-08-10T18:00:22.278Z,24.29
2022-08-10T18:03:27.855Z,24.18
2022-08-10T18:06:30.752Z,24.03
2022-08-10T18:09:46.519Z,23.86
2022-08-10T18:12:54.580Z,23.71
2022-08-10T18:15:57.239Z,23.60
2022-08-10T18:19:07.680Z,23.50
2022-08-10T18:22:12.129Z,23.41
2022-08-10T18:25:20.494Z,23.27
2022-08-10T18:31:25.804Z,23.11
2022-08-10T18:34:30.418Z,22.97
2022-08-10T18:37:33.539Z,22.77
2022-08-10T18:40:38.541Z,22.66
2022-08-10T18:44:07.145Z,22.53
2022-08-10T18:47:30.533Z,22.36
2022-08-10T18:50:37.761Z,22.20
2022-08-10T18:53:48.624Z,22.03
2022-08-10T18:56:59.361Z,21.80
2022-08-10T19:00:08.799Z,21.63
2022-08-10T19:03:26.993Z,21.39
2022-08-10T19:06:51.194Z,21.21
2022-08-10T19:10:12.212Z,20.97
2022-08-10T19:13:34.406Z,20.84
2022-08-10T19:16:58.722Z,20.75
2022-08-10T19:20:13.072Z,20.67
2022-08-10T19:23:52.839Z,20.52
2022-08-10T19:27:08.595Z,20.36
2022-08-10T19:30:16.251Z,20.18
2022-08-10T19:33:42.703Z,20.05
2022-08-10T19:37:05.345Z,19.96
2022-08-10T19:40:44.434Z,19.80
2022-08-10T19:44:03.666Z,19.60
2022-08-10T19:47:12.283Z,19.52
2022-08-10T19:50:19.644Z,19.44
2022-08-10T19:53:46.502Z,19.34
2022-08-10T19:57:04.280Z,19.24
2022-08-10T20:00:18.491Z,19.13
2022-08-10T20:03:34.490Z,19.02
2022-08-10T20:06:48.237Z,18.90
2022-08-10T20:10:00.756Z,18.74
2022-08-10T20:13:10.836Z,18.61
2022-08-10T20:16:22.975Z,18.49
2022-08-10T20:20:06.589Z,18.44
2022-08-10T20:23:14.218Z,18.30
2022-08-10T20:26:33.336Z,18.15
2022-08-10T20:29:57.299Z,18.08
2022-08-10T20:33:28.397Z,17.97
2022-08-10T20:36:31.876Z,17.85
2022-08-10T20:39:39.389Z,17.76
2022-08-10T20:42:50.409Z,17.67
2022-08-10T20:46:15.203Z,17.57
2022-08-10T20:49:39.754Z,17.49
2022-08-10T20:52:44.278Z,17.36
2022-08-10T20:55:55.823Z,17.28
2022-08-10T20:59:08.732Z,17.22
2022-08-10T21:02:29.812Z,17.20
2022-08-10T21:06:09.153Z,17.15
2022-08-10T21:09:37.443Z,17.13
2022-08-10T21:12:49.953Z,17.03
2022-08-10T21:15:52.691Z,16.93
2022-08-10T21:19:27.789Z,16.86
2022-08-10T21:22:42.448Z,16.75
2022-08-10T21:26:07.432Z,16.72
2022-08-10T21:29:41.591Z,16.66
2022-08-10T21:33:21.014Z,16.57
2022-08-10T21:36:32.293Z,16.42
2022-08-10T21:39:58.279Z,16.42
2022-08-10T21:43:44.815Z,16.36
2022-08-10T21:47:39.997Z,16.33
2022-08-10T21:51:05.907Z,16.21
2022-08-10T21:54:35.478Z,16.15
2022-08-10T21:58:16.161Z,16.08
2022-08-10T22:01:51.649Z,15.95
2022-08-10T22:05:17.951Z,15.90
2022-08-10T22:08:51.914Z,15.90
2022-08-10T22:12:24.974Z,15.83
2022-08-10T22:16:10.873Z,15.75
2022-08-10T22:19:34.256Z,15.66
2022-08-10T22:23:03.404Z,15.62
2022-08-10T22:27:01.227Z,15.58
2022-08-10T22:30:23.649Z,15.54
2022-08-10T22:34:09.756Z,15.47
2022-08-10T22:38:10.554Z,15.44
2022-08-10T22:41:56.571Z,15.30
2022-08-10T22:45:19.531Z,15.31
2022-08-10T22:48:40.730Z,15.26
2022-08-10T22:52:01.268Z,15.22
2022-08-10T22:55:28.112Z,15.16
2022-08-10T22:58:42.083Z,15.05
2022-08-10T23:02:07.936Z,15.08
2022-08-10T23:05:13.561Z,15.05
2022-08-10T23:08:30.211Z,15.01
2022-08-10T23:11:36.982Z,14.98
2022-08-10T23:14:41.533Z,14.93
2022-08-10T23:18:23.024Z,14.95
2022-08-10T23:22:00.067Z,14.89
2022-08-10T23:25:09.839Z,14.77
2022-08-10T23:28:14.662Z,14.79
2022-08-10T23:32:01.170Z,14.77
2022-08-10T23:34:46.224Z,14.69
2022-08-10T23:38:09.935Z,14.68
2022-08-10T23:41:12.708Z,14.63
2022-08-10T23:44:21.048Z,14.53
2022-08-10T23:47:28.128Z,14.44
2022-08-10T23:50:32.471Z,14.42
2022-08-10T23:53:39.057Z,14.46
2022-08-10T23:56:47.780Z,14.43
2022-08-10T23:59:53.408Z,14.40
